Terminal Aerodrome Forecast
Issued by NWS

Home | Current Version | Previous Version | Text Only | Print | Product List | Glossary On
Versions: 1 2 3 4 5 6 7 8 9 10 11 12 13 14 15 16 17 18
000
FTUS46 KMTR 250520
TAFSTS
TAF
KSTS 250520Z 2506/2606 16007KT P6SM FEW020 FEW080
     FM250700 VRB03KT P6SM BKN012
     FM250800 00000KT 2SM BR OVC009
     FM251700 VRB03KT P6SM OVC015
     FM251800 19008KT P6SM FEW012
     FM260400 19004KT P6SM BKN009=

USA.gov is the U.S. government's official web portal to all federal, state and local government web resources and services.